Terminal Aerodrome Forecast
Issued by NWS

Current Version | Previous Version | Text Only | Print | Product List | Glossary On
Versions: 1 2 3 4 5 6 7 8 9 10 11 12 13 14
000
FTUS44 KEPZ 281100
TAFDMN
TAF
KDMN 281121Z 2812/2912 VRB06KT P6SM VCTS FEW050CB OVC100
     FM282000 16012KT P6SM VCTS BKN080CB BKN250=

USA.gov is the U.S. government's official web portal to all federal, state and local government web resources and services.